Lydia — CQDQ — position and weather

sailwx.info

Track history (hours):
 
Tides and Currents Weather Stations Pressure Air Temp Water Temp Dewpoint Dewpoint Depression Visibility Wind Speed Wind Dir Waves Ship Positions

Lydia

Last reported at 2018-Apr-20 16:28 UTC. Time now 2018-Apr-23 19:36 UTC.
Position N 01°15' E 104°03'.

Length 215 m; draft 9 m.

Type: Ship (hazmat cat A). MMSI: 255805793.

Date/timePositionNaut miles runAvg speedWind from/ knotsBaromVisibWave heightAir tempDewpointWater temp
2018-Apr-20 16:28N 01°15' E 104°03'612.7
2018-Apr-20 15:58N 01°14' E 103°57'612.3
2018-Apr-20 15:30N 01°11' E 103°52'611.3
2018-Apr-20 14:59N 01°09' E 103°47'612.2
2018-Apr-20 14:30N 01°05' E 103°42'610.7
2018-Apr-20 13:58N 01°04' E 103°37'611.7
2018-Apr-20 13:26N 01°09' E 103°33'512.1
2018-Apr-20 12:59N 01°14' E 103°33'1 2.4
2018-Apr-20 12:30N 01°15' E 103°33'0 0.0
2018-Apr-20 11:39N 01°15' E 103°33'0 0.1
2018-Apr-20 11:27N 01°15' E 103°33'0 0.0
2018-Apr-20 10:57N 01°15' E 103°33'0 0.0
2018-Apr-20 10:24N 01°15' E 103°33'0 0.0
2018-Apr-20 09:51N 01°15' E 103°33'0 0.0
2018-Apr-20 08:21N 01°15' E 103°33'0 0.1
2018-Apr-20 07:54N 01°15' E 103°33'0 0.3
2018-Apr-20 07:30N 01°15' E 103°33'0 0.4
2018-Apr-20 06:59N 01°15' E 103°33'0 0.3
2018-Apr-20 06:31N 01°15' E 103°33'3 5.2
2018-Apr-20 05:59N 01°18' E 103°33'5 9.4
2018-Apr-20 05:30N 01°22' E 103°32'0 0.4
2018-Apr-20 04:53N 01°22' E 103°33'0 0.0
2018-Apr-20 04:26N 01°22' E 103°33'0 0.0
2018-Apr-20 03:56N 01°22' E 103°33'0 0.0
2018-Apr-20 03:23N 01°22' E 103°33'0 0.0
2018-Apr-20 02:59N 01°22' E 103°33'0 0.0
2018-Apr-20 00:59N 01°22' E 103°33'0 0.0
2018-Apr-20 00:23N 01°22' E 103°33'0 0.0
2018-Apr-19 23:59N 01°22' E 103°33'0 0.0
2018-Apr-19 23:26N 01°22' E 103°33'0 0.0
2018-Apr-19 22:44N 01°22' E 103°33'0 0.0
2018-Apr-19 22:29N 01°22' E 103°33'0 0.0
2018-Apr-19 21:59N 01°22' E 103°33'0 0.0
2018-Apr-19 20:41N 01°22' E 103°33'0 0.0
2018-Apr-19 20:26N 01°22' E 103°33'0 0.0
2018-Apr-19 19:53N 01°22' E 103°33'0 0.0
2018-Apr-19 19:26N 01°22' E 103°33'0 0.0
2018-Apr-19 18:44N 01°22' E 103°33'0 0.0
2018-Apr-19 18:29N 01°22' E 103°33'0 0.0
2018-Apr-19 17:47N 01°22' E 103°33'0 0.0
2018-Apr-19 17:29N 01°22' E 103°33'0 0.0
2018-Apr-19 16:59N 01°22' E 103°33'2 3.3
2018-Apr-19 16:30N 01°21' E 103°33'612.8
2018-Apr-19 16:00N 01°14' E 103°32'611.3
2018-Apr-19 15:30N 01°11' E 103°37'713.3
2018-Apr-19 15:00N 01°09' E 103°43'713.5
2018-Apr-19 14:30N 01°11' E 103°50'815.3
2018-Apr-19 13:59N 01°14' E 103°57'  
2018-Apr-16 01:56S 06°51' E 112°45'612.5
2018-Apr-16 01:29S 06°56' E 112°43'714.2
2018-Apr-16 00:58S 07°03' E 112°40'714.9
2018-Apr-16 00:30S 07°09' E 112°40'3 6.1
2018-Apr-16 00:01S 07°12' E 112°42'0 0.0
2018-Apr-15 08:52S 07°12' E 112°42'2 4.6
2018-Apr-15 08:30S 07°11' E 112°41'712.8
2018-Apr-15 07:59S 07°04' E 112°40'715.5
2018-Apr-15 07:30S 06°57' E 112°43'712.7
2018-Apr-15 06:59S 06°51' E 112°45'  
Track history (hours):
 
Tides and Currents Weather Stations Pressure Air Temp Water Temp Dewpoint Dewpoint Depression Visibility Wind Speed Wind Dir Waves Ship Positions

Lydia

Last reported at 2018-Apr-20 16:28 UTC. Time now 2018-Apr-23 19:36 UTC.
Position N 01°15' E 104°03'.

Length 215 m; draft 9 m.

Type: Ship (hazmat cat A). MMSI: 255805793.

Date/timePositionNaut miles runAvg speedWind from/ knotsBaromVisibWave heightAir tempDewpointWater temp
2018-Apr-20 16:28N 01°15' E 104°03'612.7
2018-Apr-20 15:58N 01°14' E 103°57'612.3
2018-Apr-20 15:30N 01°11' E 103°52'611.3
2018-Apr-20 14:59N 01°09' E 103°47'612.2
2018-Apr-20 14:30N 01°05' E 103°42'610.7
2018-Apr-20 13:58N 01°04' E 103°37'611.7
2018-Apr-20 13:26N 01°09' E 103°33'512.1
2018-Apr-20 12:59N 01°14' E 103°33'1 2.4
2018-Apr-20 12:30N 01°15' E 103°33'0 0.0
2018-Apr-20 11:39N 01°15' E 103°33'0 0.1
2018-Apr-20 11:27N 01°15' E 103°33'0 0.0
2018-Apr-20 10:57N 01°15' E 103°33'0 0.0
2018-Apr-20 10:24N 01°15' E 103°33'0 0.0
2018-Apr-20 09:51N 01°15' E 103°33'0 0.0
2018-Apr-20 08:21N 01°15' E 103°33'0 0.1
2018-Apr-20 07:54N 01°15' E 103°33'0 0.3
2018-Apr-20 07:30N 01°15' E 103°33'0 0.4
2018-Apr-20 06:59N 01°15' E 103°33'0 0.3
2018-Apr-20 06:31N 01°15' E 103°33'3 5.2
2018-Apr-20 05:59N 01°18' E 103°33'5 9.4
2018-Apr-20 05:30N 01°22' E 103°32'0 0.4
2018-Apr-20 04:53N 01°22' E 103°33'0 0.0
2018-Apr-20 04:26N 01°22' E 103°33'0 0.0
2018-Apr-20 03:56N 01°22' E 103°33'0 0.0
2018-Apr-20 03:23N 01°22' E 103°33'0 0.0
2018-Apr-20 02:59N 01°22' E 103°33'0 0.0
2018-Apr-20 00:59N 01°22' E 103°33'0 0.0
2018-Apr-20 00:23N 01°22' E 103°33'0 0.0
2018-Apr-19 23:59N 01°22' E 103°33'0 0.0
2018-Apr-19 23:26N 01°22' E 103°33'0 0.0
2018-Apr-19 22:44N 01°22' E 103°33'0 0.0
2018-Apr-19 22:29N 01°22' E 103°33'0 0.0
2018-Apr-19 21:59N 01°22' E 103°33'0 0.0
2018-Apr-19 20:41N 01°22' E 103°33'0 0.0
2018-Apr-19 20:26N 01°22' E 103°33'0 0.0
2018-Apr-19 19:53N 01°22' E 103°33'0 0.0
2018-Apr-19 19:26N 01°22' E 103°33'0 0.0
2018-Apr-19 18:44N 01°22' E 103°33'0 0.0
2018-Apr-19 18:29N 01°22' E 103°33'0 0.0
2018-Apr-19 17:47N 01°22' E 103°33'0 0.0
2018-Apr-19 17:29N 01°22' E 103°33'0 0.0
2018-Apr-19 16:59N 01°22' E 103°33'2 3.3
2018-Apr-19 16:30N 01°21' E 103°33'612.8
2018-Apr-19 16:00N 01°14' E 103°32'611.3
2018-Apr-19 15:30N 01°11' E 103°37'713.3
2018-Apr-19 15:00N 01°09' E 103°43'713.5
2018-Apr-19 14:30N 01°11' E 103°50'815.3
2018-Apr-19 13:59N 01°14' E 103°57'  
2018-Apr-16 01:56S 06°51' E 112°45'612.5
2018-Apr-16 01:29S 06°56' E 112°43'714.2
2018-Apr-16 00:58S 07°03' E 112°40'714.9
2018-Apr-16 00:30S 07°09' E 112°40'3 6.1
2018-Apr-16 00:01S 07°12' E 112°42'0 0.0
2018-Apr-15 08:52S 07°12' E 112°42'2 4.6
2018-Apr-15 08:30S 07°11' E 112°41'712.8
2018-Apr-15 07:59S 07°04' E 112°40'715.5
2018-Apr-15 07:30S 06°57' E 112°43'712.7
2018-Apr-15 06:59S 06°51' E 112°45'  

Dump ship's entire track history